createdAt,value
2022-10-19T00:01:11.143Z,9.24
2022-10-19T00:06:18.413Z,9.10
2022-10-19T00:11:18.716Z,8.99
2022-10-19T00:16:21.118Z,8.59
2022-10-19T00:21:22.627Z,8.84
2022-10-19T00:26:22.273Z,8.01
2022-10-19T00:31:25.863Z,8.47
2022-10-19T00:36:28.023Z,8.61
2022-10-19T00:41:28.811Z,8.77
2022-10-19T00:46:31.708Z,8.81
2022-10-19T00:51:35.314Z,9.20
2022-10-19T00:56:38.826Z,9.15
2022-10-19T01:01:37.044Z,8.92
2022-10-19T01:06:36.301Z,9.03
2022-10-19T01:11:52.210Z,8.73
2022-10-19T01:17:09.549Z,8.68
2022-10-19T01:22:31.548Z,8.72
2022-10-19T01:27:42.491Z,8.73
2022-10-19T01:33:22.677Z,8.47
2022-10-19T01:38:35.604Z,8.54
2022-10-19T01:43:54.465Z,8.40
2022-10-19T01:49:02.402Z,8.28
2022-10-19T01:54:06.671Z,8.13
2022-10-19T01:59:07.102Z,8.03
2022-10-19T02:04:07.038Z,8.06
2022-10-19T02:09:08.110Z,7.86
2022-10-19T02:14:10.494Z,7.81
2022-10-19T02:19:13.742Z,7.99
2022-10-19T02:24:12.962Z,8.01
2022-10-19T02:29:14.384Z,7.99
2022-10-19T02:34:13.919Z,7.81
2022-10-19T02:39:14.121Z,7.28
2022-10-19T02:44:30.675Z,7.65
2022-10-19T02:49:30.901Z,7.85
2022-10-19T02:54:33.562Z,7.83
2022-10-19T02:59:32.571Z,8.08
2022-10-19T03:04:37.808Z,7.61
2022-10-19T03:09:37.188Z,7.67
2022-10-19T03:14:36.038Z,7.71
2022-10-19T03:19:35.196Z,7.78
2022-10-19T03:24:34.815Z,7.88
2022-10-19T03:29:33.524Z,7.53
2022-10-19T03:34:43.951Z,7.29
2022-10-19T03:39:44.713Z,7.54
2022-10-19T03:44:47.835Z,7.22
2022-10-19T03:49:46.500Z,7.13
2022-10-19T03:54:50.365Z,7.54
2022-10-19T03:59:52.779Z,7.30
2022-10-19T04:04:53.458Z,7.22
2022-10-19T04:09:52.695Z,7.17
2022-10-19T04:14:57.341Z,6.95
2022-10-19T04:19:58.446Z,7.24
2022-10-19T04:24:57.873Z,6.98
2022-10-19T04:29:55.551Z,6.64
2022-10-19T04:34:53.154Z,6.53
2022-10-19T04:39:52.122Z,6.48
2022-10-19T04:44:51.686Z,6.57
2022-10-19T04:49:53.440Z,6.76
2022-10-19T04:54:54.103Z,6.68
2022-10-19T04:59:54.530Z,6.79
2022-10-19T05:04:56.341Z,7.05
2022-10-19T05:09:57.465Z,7.21
2022-10-19T05:15:00.933Z,7.24
2022-10-19T05:20:04.790Z,7.48
2022-10-19T05:25:08.103Z,7.44
2022-10-19T05:30:08.542Z,7.43
2022-10-19T05:35:07.179Z,7.59
2022-10-19T05:40:05.855Z,7.70
2022-10-19T05:45:04.090Z,7.90
2022-10-19T05:50:09.583Z,7.98
2022-10-19T05:55:11.362Z,8.17
2022-10-19T06:00:13.083Z,8.47
2022-10-19T06:05:13.437Z,8.68
2022-10-19T06:10:14.732Z,8.82
2022-10-19T06:15:16.278Z,8.92
2022-10-19T06:20:16.858Z,9.20
2022-10-19T06:25:20.621Z,9.27
2022-10-19T06:30:22.690Z,9.38
2022-10-19T06:35:23.335Z,9.47
2022-10-19T06:40:25.319Z,9.56
2022-10-19T06:45:27.204Z,9.80
2022-10-19T06:50:26.345Z,9.69
2022-10-19T06:55:24.302Z,9.77
2022-10-19T07:00:23.388Z,9.66
2022-10-19T07:05:21.240Z,9.91
2022-10-19T07:10:21.785Z,10.08
2022-10-19T07:15:43.512Z,9.98
2022-10-19T07:21:05.797Z,10.10
2022-10-19T07:26:22.457Z,10.18
2022-10-19T07:37:36.790Z,10.66
2022-10-19T07:42:38.318Z,10.95
2022-10-19T07:47:37.100Z,11.13
2022-10-19T07:53:04.871Z,11.53
2022-10-19T07:58:05.662Z,11.99
2022-10-19T08:03:43.666Z,12.16
2022-10-19T08:08:40.603Z,12.68
2022-10-19T08:13:53.610Z,12.77
2022-10-19T08:19:13.869Z,12.92
2022-10-19T08:24:15.638Z,13.14
2022-10-19T08:40:59.197Z,13.77
2022-10-19T08:46:24.327Z,14.19
2022-10-19T08:51:24.101Z,14.29
2022-10-19T08:56:52.060Z,14.30
2022-10-19T09:01:59.425Z,14.26
2022-10-19T09:07:20.660Z,14.57
2022-10-19T09:12:53.893Z,14.56
2022-10-19T09:17:55.593Z,14.78
2022-10-19T09:23:29.241Z,14.89
2022-10-19T09:29:20.599Z,15.29
2022-10-19T09:34:33.797Z,15.31
2022-10-19T09:39:50.412Z,15.58
2022-10-19T09:45:02.223Z,15.67
2022-10-19T09:50:10.110Z,16.00
2022-10-19T09:55:35.174Z,16.25
2022-10-19T10:01:11.982Z,16.40
2022-10-19T10:06:31.985Z,16.39
2022-10-19T10:17:08.072Z,16.71
2022-10-19T10:22:40.570Z,16.71
2022-10-19T10:27:40.572Z,17.01
2022-10-19T10:32:44.409Z,17.19
2022-10-19T10:37:52.274Z,17.35
2022-10-19T10:42:58.198Z,17.52
2022-10-19T10:47:57.402Z,17.74
2022-10-19T10:53:35.914Z,17.97
2022-10-19T10:58:44.473Z,18.13
2022-10-19T11:03:54.647Z,18.14
2022-10-19T11:09:52.450Z,18.51
2022-10-19T11:15:25.244Z,18.68
2022-10-19T11:20:29.782Z,18.68
2022-10-19T11:26:17.650Z,18.72
2022-10-19T11:31:22.543Z,18.81
2022-10-19T11:36:21.603Z,19.11
2022-10-19T11:41:27.726Z,19.25
2022-10-19T11:46:33.355Z,19.11
2022-10-19T11:51:37.370Z,19.46
2022-10-19T12:02:20.622Z,19.64
2022-10-19T12:07:51.007Z,19.58
2022-10-19T12:13:00.766Z,19.61
2022-10-19T12:18:09.913Z,19.81
2022-10-19T12:23:40.221Z,19.81
2022-10-19T12:29:00.389Z,19.70
2022-10-19T12:34:37.160Z,19.82
2022-10-19T12:40:26.313Z,19.88
2022-10-19T12:46:08.698Z,19.89
2022-10-19T12:51:14.991Z,20.00
2022-10-19T12:56:51.366Z,20.25
2022-10-19T13:02:07.683Z,20.07
2022-10-19T13:07:18.268Z,20.25
2022-10-19T13:12:25.785Z,20.34
2022-10-19T13:23:30.342Z,20.54
2022-10-19T13:28:37.476Z,20.60
2022-10-19T13:33:47.649Z,20.61
2022-10-19T13:39:28.867Z,20.56
2022-10-19T13:44:31.293Z,20.49
2022-10-19T13:50:00.976Z,20.64
2022-10-19T13:55:22.208Z,20.67
2022-10-19T14:00:46.259Z,20.66
2022-10-19T14:06:04.278Z,20.44
2022-10-19T14:11:55.099Z,20.68
2022-10-19T14:17:29.926Z,20.49
2022-10-19T14:22:40.023Z,20.44
2022-10-19T14:27:49.009Z,20.43
2022-10-19T14:32:48.932Z,20.20
2022-10-19T14:37:46.968Z,20.09
2022-10-19T14:42:47.752Z,19.86
2022-10-19T14:48:00.457Z,19.82
2022-10-19T14:53:39.125Z,19.63
2022-10-19T14:58:45.614Z,19.31
2022-10-19T15:04:00.517Z,19.06
2022-10-19T15:09:04.897Z,18.89
2022-10-19T15:14:08.816Z,18.60
2022-10-19T15:19:26.028Z,18.30
2022-10-19T15:24:31.112Z,18.16
2022-10-19T15:35:21.053Z,17.64
2022-10-19T15:41:16.101Z,17.55
2022-10-19T15:46:25.539Z,17.31
2022-10-19T15:51:25.666Z,17.22
2022-10-19T15:56:27.700Z,16.92
2022-10-19T16:01:29.910Z,16.79
2022-10-19T16:06:33.069Z,16.70
2022-10-19T16:11:35.564Z,16.68
2022-10-19T16:16:42.051Z,16.22
2022-10-19T16:21:46.726Z,16.37
2022-10-19T16:26:57.610Z,16.16
2022-10-19T16:32:05.609Z,16.09
2022-10-19T16:37:15.251Z,16.10
2022-10-19T16:42:18.103Z,16.01
2022-10-19T16:53:06.056Z,15.67
2022-10-19T16:58:07.437Z,15.60
2022-10-19T17:03:13.425Z,15.55
2022-10-19T17:08:15.630Z,15.38
2022-10-19T17:13:13.819Z,15.45
2022-10-19T17:18:11.715Z,15.18
2022-10-19T17:23:35.474Z,15.11
2022-10-19T17:34:20.873Z,15.01
2022-10-19T17:39:28.951Z,14.78
2022-10-19T17:44:54.836Z,14.79
2022-10-19T17:50:01.762Z,14.72
2022-10-19T18:01:13.098Z,14.53
2022-10-19T18:06:54.409Z,14.12
2022-10-19T18:12:05.066Z,14.32
2022-10-19T18:17:44.308Z,14.00
2022-10-19T18:22:54.105Z,13.98
2022-10-19T18:28:37.266Z,14.15
2022-10-19T18:33:41.987Z,13.80
2022-10-19T18:38:42.632Z,13.91
2022-10-19T18:44:05.463Z,13.79
2022-10-19T18:49:15.639Z,13.69
2022-10-19T18:54:38.495Z,13.66
2022-10-19T18:59:43.821Z,13.65
2022-10-19T19:04:56.779Z,13.52
2022-10-19T19:09:59.374Z,13.56
2022-10-19T19:14:59.938Z,13.42
2022-10-19T19:20:05.658Z,13.14
2022-10-19T19:25:05.979Z,13.03
2022-10-19T19:30:05.240Z,13.02
2022-10-19T19:35:03.963Z,13.16
2022-10-19T19:40:27.615Z,13.52
2022-10-19T19:45:26.021Z,13.29
2022-10-19T19:50:30.553Z,13.42
2022-10-19T19:55:44.053Z,13.36
2022-10-19T20:00:50.057Z,13.28
2022-10-19T20:05:51.692Z,13.20
2022-10-19T20:10:53.880Z,13.28
2022-10-19T20:15:54.261Z,13.22
2022-10-19T20:21:00.965Z,13.26
2022-10-19T20:26:18.832Z,13.26
2022-10-19T20:31:18.420Z,13.00
2022-10-19T20:36:26.598Z,13.31
2022-10-19T20:41:31.274Z,13.03
2022-10-19T20:46:39.169Z,12.91
2022-10-19T20:51:42.463Z,13.09
2022-10-19T20:56:43.992Z,12.91
2022-10-19T21:01:46.061Z,13.09
2022-10-19T21:06:46.509Z,12.99
2022-10-19T21:11:47.516Z,13.27
2022-10-19T21:16:47.478Z,13.39
2022-10-19T21:21:50.796Z,13.23
2022-10-19T21:26:55.263Z,13.10
2022-10-19T21:31:53.957Z,12.79
2022-10-19T21:36:54.697Z,13.53
2022-10-19T21:41:53.807Z,13.04
2022-10-19T21:46:53.413Z,12.76
2022-10-19T21:51:56.384Z,12.02
2022-10-19T21:56:56.742Z,12.52
2022-10-19T22:01:58.058Z,12.59
2022-10-19T22:06:59.744Z,12.22
2022-10-19T22:11:58.804Z,12.35
2022-10-19T22:17:12.547Z,12.32
2022-10-19T22:22:11.353Z,12.53
2022-10-19T22:27:09.885Z,12.11
2022-10-19T22:32:19.233Z,11.99
2022-10-19T22:37:20.801Z,11.89
2022-10-19T22:42:26.942Z,12.21
2022-10-19T22:47:30.219Z,12.26
2022-10-19T22:52:29.892Z,11.79
2022-10-19T22:57:30.714Z,12.12
2022-10-19T23:02:30.939Z,12.49
2022-10-19T23:07:33.596Z,12.51
2022-10-19T23:12:34.211Z,11.98
2022-10-19T23:17:35.897Z,12.39
2022-10-19T23:22:33.726Z,12.26
2022-10-19T23:27:52.120Z,12.47
2022-10-19T23:33:00.227Z,12.41
2022-10-19T23:37:59.875Z,12.81
2022-10-19T23:42:59.259Z,12.51
2022-10-19T23:47:59.718Z,12.51
2022-10-19T23:53:02.273Z,12.51
2022-10-19T23:58:06.017Z,12.58
